createdAt,value
2016-11-24T00:00:02.650Z,73786
2016-11-24T00:00:11.438Z,73785
2016-11-24T00:00:20.179Z,73783
2016-11-24T00:00:28.883Z,73784
2016-11-24T00:00:37.575Z,73783
2016-11-24T00:00:46.248Z,73787
2016-11-24T00:00:55.000Z,73789
2016-11-24T00:01:04.018Z,73784
2016-11-24T00:01:12.970Z,73778
2016-11-24T00:01:21.704Z,73784
2016-11-24T00:01:30.519Z,73785
2016-11-24T00:01:39.201Z,73793
2016-11-24T00:01:47.904Z,73789
2016-11-24T00:01:56.692Z,73787
2016-11-24T00:02:05.765Z,73784
2016-11-24T00:02:14.808Z,73778
2016-11-24T00:02:23.830Z,73778
2016-11-24T00:02:32.640Z,73771
2016-11-24T00:02:41.348Z,73773
2016-11-24T00:02:50.071Z,73776
2016-11-24T00:02:58.885Z,73774
2016-11-24T00:03:07.674Z,73775
2016-11-24T00:03:16.403Z,73775
2016-11-24T00:03:25.187Z,73772
2016-11-24T00:03:33.898Z,73769
2016-11-24T00:03:42.629Z,73764
2016-11-24T00:03:51.437Z,73768
2016-11-24T00:04:00.212Z,73764
2016-11-24T00:04:08.961Z,73762
2016-11-24T00:04:17.695Z,73767
2016-11-24T00:04:26.372Z,73767
2016-11-24T00:04:35.030Z,73766
2016-11-24T00:04:43.799Z,73762
2016-11-24T00:04:52.861Z,73762
2016-11-24T00:05:01.585Z,73761
2016-11-24T00:05:10.375Z,73761
2016-11-24T00:05:19.385Z,73768
2016-11-24T00:05:28.114Z,73764
2016-11-24T00:05:36.798Z,73770
2016-11-24T00:05:45.519Z,73767
2016-11-24T00:05:54.239Z,73764
2016-11-24T00:06:02.966Z,73766
2016-11-24T00:06:11.637Z,73767
2016-11-24T00:06:20.350Z,73767
2016-11-24T00:06:29.047Z,73764
2016-11-24T00:06:37.832Z,73764
2016-11-24T00:06:46.524Z,73762
2016-11-24T00:06:55.243Z,73759
2016-11-24T00:07:03.962Z,73763
2016-11-24T00:07:12.790Z,73763
2016-11-24T00:07:21.469Z,73763
2016-11-24T00:07:30.168Z,73761
2016-11-24T00:07:38.912Z,73759
2016-11-24T00:07:47.645Z,73754
2016-11-24T00:07:56.454Z,73754
2016-11-24T00:08:05.245Z,73757
2016-11-24T00:08:13.946Z,73753
2016-11-24T00:08:22.669Z,73757
2016-11-24T00:08:31.424Z,73753
2016-11-24T00:08:40.148Z,73753
2016-11-24T00:08:48.895Z,73756
2016-11-24T00:08:57.585Z,73754
2016-11-24T00:09:06.291Z,73753
2016-11-24T00:09:15.066Z,73758
2016-11-24T00:09:23.803Z,73753
2016-11-24T00:09:32.591Z,73759
2016-11-24T00:09:41.369Z,73764
2016-11-24T00:09:50.068Z,73762
2016-11-24T00:09:58.800Z,73763
2016-11-24T00:10:07.512Z,73761
2016-11-24T00:10:16.218Z,73762
2016-11-24T00:10:25.027Z,73758
2016-11-24T00:10:33.719Z,73757
2016-11-24T00:10:42.487Z,73754
2016-11-24T00:10:51.203Z,73756
2016-11-24T00:10:59.904Z,73755
2016-11-24T00:11:08.691Z,73750
2016-11-24T00:11:17.436Z,73751
2016-11-24T00:11:26.165Z,73748
2016-11-24T00:11:34.952Z,73751
2016-11-24T00:11:43.628Z,73758
2016-11-24T00:11:52.352Z,73760
2016-11-24T00:12:01.096Z,73760
2016-11-24T00:12:09.870Z,73763
2016-11-24T00:12:18.902Z,73766
2016-11-24T00:12:27.603Z,73769
2016-11-24T00:12:36.381Z,73770
2016-11-24T00:12:45.035Z,73776
2016-11-24T00:12:53.803Z,73774
2016-11-24T00:13:02.552Z,73769
2016-11-24T00:13:11.321Z,73772
2016-11-24T00:13:20.083Z,73775
2016-11-24T00:13:28.796Z,73769
2016-11-24T00:13:37.521Z,73766
2016-11-24T00:13:46.276Z,73760
2016-11-24T00:13:54.973Z,73767
2016-11-24T00:14:03.754Z,73766
2016-11-24T00:14:12.445Z,73761
2016-11-24T00:14:21.210Z,73762
2016-11-24T00:14:29.935Z,73766
2016-11-24T00:14:38.685Z,73756
2016-11-24T00:14:47.387Z,73758
2016-11-24T00:14:56.173Z,73755
2016-11-24T00:15:04.907Z,73756
2016-11-24T00:15:13.631Z,73759
2016-11-24T00:15:22.437Z,73762
2016-11-24T00:15:31.235Z,73766
2016-11-24T00:15:39.998Z,73761
2016-11-24T00:15:48.818Z,73763
2016-11-24T00:15:57.573Z,73764
2016-11-24T00:16:06.291Z,73762
2016-11-24T00:16:15.017Z,73764
2016-11-24T00:16:23.740Z,73759
2016-11-24T00:16:32.759Z,73762
2016-11-24T00:16:41.516Z,73762
2016-11-24T00:16:50.260Z,73761
2016-11-24T00:16:59.015Z,73760
2016-11-24T00:17:07.786Z,73765
2016-11-24T00:17:16.515Z,73769
2016-11-24T00:17:25.248Z,73772
2016-11-24T00:17:33.968Z,73772
2016-11-24T00:17:42.723Z,73772
2016-11-24T00:17:51.529Z,73771
2016-11-24T00:18:00.235Z,73771
2016-11-24T00:18:09.002Z,73771
2016-11-24T00:18:17.683Z,73768
2016-11-24T00:18:26.372Z,73768
2016-11-24T00:18:35.106Z,73770
2016-11-24T00:18:43.846Z,73772
2016-11-24T00:18:52.566Z,73770
2016-11-24T00:19:01.358Z,73771
2016-11-24T00:19:10.103Z,73772
2016-11-24T00:19:18.850Z,73774
2016-11-24T00:19:27.650Z,73770
2016-11-24T00:19:36.407Z,73772
2016-11-24T00:19:45.152Z,73771
2016-11-24T00:19:53.941Z,73772
2016-11-24T00:20:02.736Z,73775
2016-11-24T00:20:11.817Z,73776
2016-11-24T00:20:20.607Z,73770
2016-11-24T00:20:29.382Z,73773
2016-11-24T00:20:38.114Z,73773
2016-11-24T00:20:46.896Z,73773
2016-11-24T00:20:55.594Z,73771
2016-11-24T00:21:04.409Z,73771
2016-11-24T00:21:13.110Z,73771
2016-11-24T00:21:21.858Z,73772
2016-11-24T00:21:30.623Z,73777
2016-11-24T00:21:39.395Z,73776
2016-11-24T00:21:48.125Z,73773
2016-11-24T00:21:56.912Z,73780
2016-11-24T00:22:05.702Z,73773
2016-11-24T00:22:14.447Z,73775
2016-11-24T00:22:23.204Z,73775
2016-11-24T00:22:31.899Z,73778
2016-11-24T00:22:40.632Z,73777
2016-11-24T00:22:49.423Z,73778
2016-11-24T00:22:58.132Z,73775
2016-11-24T00:23:06.887Z,73779
2016-11-24T00:23:15.683Z,73777
2016-11-24T00:23:24.439Z,73781
2016-11-24T00:23:33.195Z,73779
2016-11-24T00:23:41.943Z,73777
2016-11-24T00:23:50.648Z,73776
2016-11-24T00:23:59.401Z,73771
2016-11-24T00:24:08.180Z,73771
2016-11-24T00:24:16.914Z,73774
2016-11-24T00:24:25.694Z,73769
2016-11-24T00:24:34.484Z,73768
2016-11-24T00:24:43.248Z,73767
2016-11-24T00:24:52.001Z,73766
2016-11-24T00:25:00.741Z,73771
2016-11-24T00:25:09.820Z,73768
2016-11-24T00:25:18.612Z,73772
2016-11-24T00:25:27.368Z,73774
2016-11-24T00:25:36.106Z,73773
2016-11-24T00:25:44.784Z,73772
2016-11-24T00:25:53.582Z,73771
2016-11-24T00:26:02.344Z,73773
2016-11-24T00:26:11.109Z,73773
2016-11-24T00:26:19.865Z,73773
2016-11-24T00:26:28.608Z,73773
2016-11-24T00:26:37.367Z,73771
2016-11-24T00:26:46.065Z,73772
2016-11-24T00:26:54.821Z,73775
2016-11-24T00:27:03.577Z,73773
2016-11-24T00:27:12.299Z,73772
2016-11-24T00:27:21.026Z,73774
2016-11-24T00:27:29.749Z,73770
2016-11-24T00:27:38.794Z,73774
2016-11-24T00:27:47.461Z,73776
2016-11-24T00:27:56.250Z,73772
2016-11-24T00:28:05.000Z,73774
2016-11-24T00:28:13.732Z,73773
2016-11-24T00:28:22.517Z,73773
2016-11-24T00:28:31.233Z,73774
2016-11-24T00:28:40.001Z,73773
2016-11-24T00:28:48.680Z,73773
2016-11-24T00:28:57.415Z,73773
2016-11-24T00:29:06.203Z,73776
2016-11-24T00:29:14.895Z,73780
2016-11-24T00:29:23.646Z,73779
2016-11-24T00:29:32.365Z,73775
2016-11-24T00:29:41.151Z,73774
2016-11-24T00:29:49.959Z,73773
2016-11-24T00:29:58.650Z,73773
2016-11-24T00:30:07.352Z,73777
2016-11-24T00:30:16.178Z,73778
2016-11-24T00:30:24.995Z,73774
2016-11-24T00:30:33.687Z,73772
2016-11-24T00:30:42.445Z,73779
2016-11-24T00:30:51.101Z,73777
2016-11-24T00:30:59.836Z,73776
2016-11-24T00:31:08.588Z,73770
2016-11-24T00:31:17.325Z,73771
2016-11-24T00:31:26.061Z,73775
2016-11-24T00:31:34.873Z,73776
2016-11-24T00:31:43.586Z,73775
2016-11-24T00:31:52.372Z,73777
2016-11-24T00:32:01.088Z,73775
2016-11-24T00:32:09.817Z,73775
2016-11-24T00:32:18.870Z,73773
2016-11-24T00:32:27.586Z,73767
2016-11-24T00:32:36.319Z,73768
2016-11-24T00:32:45.040Z,73766
2016-11-24T00:32:53.756Z,73769
2016-11-24T00:33:02.524Z,73769
2016-11-24T00:33:11.280Z,73771
2016-11-24T00:33:19.998Z,73771
2016-11-24T00:33:28.761Z,73771
2016-11-24T00:33:37.517Z,73771
2016-11-24T00:33:46.290Z,73767
2016-11-24T00:33:55.013Z,73763
2016-11-24T00:34:03.808Z,73758
2016-11-24T00:34:12.501Z,73759
2016-11-24T00:34:21.255Z,73762
2016-11-24T00:34:30.019Z,73764
2016-11-24T00:34:38.796Z,73762
2016-11-24T00:34:47.526Z,73762
2016-11-24T00:34:56.192Z,73761
2016-11-24T00:35:04.940Z,73765
2016-11-24T00:35:13.697Z,73761
2016-11-24T00:35:22.400Z,73773
2016-11-24T00:35:31.143Z,73776
2016-11-24T00:35:39.874Z,73769
2016-11-24T00:35:48.627Z,73767
2016-11-24T00:35:57.348Z,73766
2016-11-24T00:36:06.171Z,73768
2016-11-24T00:36:14.947Z,73769
2016-11-24T00:36:23.710Z,73770
2016-11-24T00:36:32.458Z,73772
2016-11-24T00:36:41.250Z,73775
2016-11-24T00:36:49.905Z,73770
2016-11-24T00:36:58.644Z,73764
2016-11-24T00:37:07.423Z,73767
2016-11-24T00:37:16.146Z,73763
2016-11-24T00:37:24.879Z,73768
2016-11-24T00:37:33.659Z,73771
2016-11-24T00:37:42.652Z,73770
2016-11-24T00:37:51.423Z,73770
2016-11-24T00:38:00.189Z,73765
2016-11-24T00:38:08.973Z,73765
2016-11-24T00:38:18.016Z,73766
2016-11-24T00:38:26.721Z,73770
2016-11-24T00:38:35.454Z,73770
2016-11-24T00:38:44.247Z,73769
2016-11-24T00:38:53.040Z,73764
2016-11-24T00:39:01.816Z,73761
2016-11-24T00:39:10.606Z,73760
2016-11-24T00:39:19.253Z,73763
2016-11-24T00:39:27.973Z,73767
2016-11-24T00:39:36.694Z,73768
2016-11-24T00:39:45.464Z,73770
2016-11-24T00:39:54.260Z,73768
2016-11-24T00:40:02.941Z,73763
2016-11-24T00:40:11.633Z,73769
2016-11-24T00:40:20.389Z,73767
2016-11-24T00:40:29.114Z,73773
2016-11-24T00:40:37.867Z,73770
2016-11-24T00:40:46.591Z,73769
2016-11-24T00:40:55.313Z,73770
2016-11-24T00:41:04.049Z,73766
2016-11-24T00:41:12.773Z,73770
2016-11-24T00:41:21.453Z,73770
2016-11-24T00:41:30.177Z,73774
2016-11-24T00:41:38.938Z,73772
2016-11-24T00:41:47.659Z,73774
2016-11-24T00:41:56.401Z,73774
2016-11-24T00:42:05.139Z,73775
2016-11-24T00:42:13.860Z,73771
2016-11-24T00:42:22.664Z,73771
2016-11-24T00:42:31.385Z,73760
2016-11-24T00:42:40.074Z,73761
2016-11-24T00:42:48.798Z,73759
2016-11-24T00:42:57.561Z,73767
2016-11-24T00:43:06.334Z,73771
2016-11-24T00:43:15.057Z,73778
2016-11-24T00:43:23.755Z,73773
2016-11-24T00:43:32.490Z,73774
2016-11-24T00:43:41.218Z,73770
2016-11-24T00:43:49.983Z,73774
2016-11-24T00:43:58.686Z,73776
2016-11-24T00:44:07.362Z,73774
2016-11-24T00:44:16.149Z,73770
2016-11-24T00:44:24.943Z,73768
2016-11-24T00:44:33.686Z,73767
2016-11-24T00:44:42.452Z,73768
2016-11-24T00:44:51.195Z,73775
2016-11-24T00:44:59.951Z,73774
2016-11-24T00:45:08.644Z,73775
2016-11-24T00:45:17.400Z,73774
2016-11-24T00:45:26.092Z,73771
2016-11-24T00:45:34.857Z,73775
2016-11-24T00:45:43.521Z,73776
2016-11-24T00:45:52.221Z,73776
2016-11-24T00:46:00.976Z,73778
2016-11-24T00:46:09.731Z,73780
2016-11-24T00:46:18.481Z,73768
2016-11-24T00:46:27.170Z,73765
2016-11-24T00:46:35.901Z,73759
2016-11-24T00:46:44.568Z,73758
2016-11-24T00:46:53.334Z,73757
2016-11-24T00:47:02.143Z,73759
2016-11-24T00:47:10.916Z,73759
2016-11-24T00:47:19.952Z,73761
2016-11-24T00:47:28.704Z,73765
2016-11-24T00:47:37.396Z,73763
2016-11-24T00:47:46.120Z,73762
2016-11-24T00:47:54.884Z,73759
2016-11-24T00:48:03.678Z,73764
2016-11-24T00:48:12.395Z,73764
2016-11-24T00:48:21.118Z,73770
2016-11-24T00:48:29.886Z,73773
2016-11-24T00:48:38.636Z,73777
2016-11-24T00:48:47.329Z,73779
2016-11-24T00:48:56.062Z,73780
2016-11-24T00:49:04.869Z,73776
2016-11-24T00:49:13.569Z,73771
2016-11-24T00:49:22.258Z,73769
2016-11-24T00:49:31.041Z,73772
2016-11-24T00:49:39.747Z,73771
2016-11-24T00:49:48.479Z,73770
2016-11-24T00:49:57.189Z,73772
2016-11-24T00:50:05.918Z,73769
2016-11-24T00:50:14.619Z,73766
2016-11-24T00:50:23.373Z,73758
2016-11-24T00:50:32.127Z,73749
2016-11-24T00:50:40.851Z,73753
2016-11-24T00:50:49.543Z,73750
2016-11-24T00:50:58.274Z,73751
2016-11-24T00:51:06.963Z,73758
2016-11-24T00:51:15.729Z,73768
2016-11-24T00:51:24.449Z,73768
2016-11-24T00:51:33.213Z,73772
2016-11-24T00:51:41.913Z,73772
2016-11-24T00:51:50.660Z,73769
2016-11-24T00:51:59.386Z,73776
2016-11-24T00:52:08.095Z,73780
2016-11-24T00:52:16.883Z,73777
2016-11-24T00:52:25.626Z,73776
2016-11-24T00:52:34.392Z,73781
2016-11-24T00:52:43.138Z,73781
2016-11-24T00:52:51.922Z,73782
2016-11-24T00:53:00.689Z,73790
2016-11-24T00:53:09.444Z,73790
2016-11-24T00:53:18.222Z,73784
2016-11-24T00:53:27.233Z,73779
2016-11-24T00:53:36.314Z,73782
2016-11-24T00:53:45.016Z,73789
2016-11-24T00:53:53.727Z,73790
2016-11-24T00:54:02.490Z,73794
2016-11-24T00:54:11.224Z,73792
2016-11-24T00:54:20.000Z,73789
2016-11-24T00:54:28.719Z,73793
2016-11-24T00:54:37.443Z,73791
2016-11-24T00:54:46.195Z,73781
2016-11-24T00:54:54.978Z,73783
2016-11-24T00:55:03.679Z,73774
2016-11-24T00:55:12.437Z,73782
2016-11-24T00:55:21.213Z,73787
2016-11-24T00:55:30.001Z,73779
2016-11-24T00:55:38.735Z,73781
2016-11-24T00:55:47.491Z,73778
2016-11-24T00:55:56.249Z,73774
2016-11-24T00:56:05.023Z,73775
2016-11-24T00:56:13.822Z,73773
2016-11-24T00:56:22.601Z,73776
2016-11-24T00:56:31.369Z,73778
2016-11-24T00:56:40.155Z,73778
2016-11-24T00:56:48.874Z,73788
2016-11-24T00:56:57.593Z,73792
2016-11-24T00:57:06.349Z,73792
2016-11-24T00:57:15.076Z,73797
2016-11-24T00:57:23.893Z,73802
2016-11-24T00:57:32.672Z,73802
2016-11-24T00:57:41.365Z,73802
2016-11-24T00:57:50.095Z,73796
2016-11-24T00:57:58.933Z,73783
2016-11-24T00:58:07.603Z,73785
2016-11-24T00:58:16.353Z,73781
2016-11-24T00:58:25.073Z,73784
2016-11-24T00:58:34.106Z,73780
2016-11-24T00:58:42.822Z,73779
2016-11-24T00:58:51.570Z,73776
2016-11-24T00:59:00.307Z,73780
2016-11-24T00:59:09.054Z,73784
2016-11-24T00:59:17.818Z,73787
2016-11-24T00:59:26.571Z,73794
2016-11-24T00:59:35.264Z,73786
2016-11-24T00:59:44.057Z,73799
2016-11-24T00:59:52.846Z,73793
2016-11-24T01:00:01.889Z,73775
2016-11-24T01:00:10.568Z,73776
2016-11-24T01:00:19.334Z,73766
2016-11-24T01:00:28.117Z,73773
2016-11-24T01:00:36.827Z,73789
2016-11-24T01:00:45.522Z,73777
2016-11-24T01:00:54.220Z,73772
2016-11-24T01:01:02.944Z,73774
2016-11-24T01:01:11.706Z,73776
2016-11-24T01:01:20.740Z,73785
2016-11-24T01:01:29.429Z,73795
2016-11-24T01:01:38.190Z,73790
2016-11-24T01:01:46.888Z,73780
2016-11-24T01:01:55.676Z,73778
2016-11-24T01:02:04.527Z,73782
2016-11-24T01:02:13.250Z,73785
2016-11-24T01:02:22.042Z,73791
2016-11-24T01:02:30.836Z,73787
2016-11-24T01:02:39.600Z,73791
2016-11-24T01:02:48.312Z,73786
2016-11-24T01:02:57.034Z,73795
2016-11-24T01:03:05.733Z,73791
2016-11-24T01:03:14.801Z,73790
2016-11-24T01:03:23.491Z,73785
2016-11-24T01:03:32.223Z,73780
2016-11-24T01:03:40.908Z,73781
2016-11-24T01:03:49.573Z,73785
2016-11-24T01:03:58.323Z,73789
2016-11-24T01:04:07.079Z,73788
2016-11-24T01:04:15.860Z,73786
2016-11-24T01:04:24.593Z,73783
2016-11-24T01:04:33.271Z,73780
2016-11-24T01:04:42.042Z,73782
2016-11-24T01:04:50.785Z,73771
2016-11-24T01:04:59.551Z,73763
2016-11-24T01:05:08.295Z,73766
2016-11-24T01:05:17.090Z,73773
2016-11-24T01:05:25.847Z,73790
2016-11-24T01:05:34.613Z,73780
2016-11-24T01:05:43.325Z,73781
2016-11-24T01:05:52.015Z,73795
2016-11-24T01:06:00.738Z,73800
2016-11-24T01:06:09.471Z,73800
2016-11-24T01:06:18.221Z,73800
2016-11-24T01:06:27.018Z,73793
2016-11-24T01:06:35.797Z,73804
2016-11-24T01:06:44.522Z,73797
2016-11-24T01:06:53.255Z,73801
2016-11-24T01:07:01.968Z,73794
2016-11-24T01:07:10.707Z,73792
2016-11-24T01:07:19.420Z,73789
2016-11-24T01:07:28.175Z,73795
2016-11-24T01:07:36.918Z,73791
2016-11-24T01:07:45.644Z,73783
2016-11-24T01:07:54.440Z,73785
2016-11-24T01:08:03.236Z,73780
2016-11-24T01:08:11.993Z,73785
2016-11-24T01:08:20.750Z,73788
2016-11-24T01:08:29.505Z,73784
2016-11-24T01:08:38.291Z,73771
2016-11-24T01:08:47.026Z,73771
2016-11-24T01:08:55.844Z,73764
2016-11-24T01:09:04.560Z,73766
2016-11-24T01:09:13.282Z,73763
2016-11-24T01:09:22.004Z,73774
2016-11-24T01:09:30.737Z,73770
2016-11-24T01:09:39.417Z,73762
2016-11-24T01:09:48.147Z,73764
2016-11-24T01:09:56.847Z,73782
2016-11-24T01:10:05.607Z,73787
2016-11-24T01:10:14.355Z,73794
2016-11-24T01:10:23.077Z,73793
2016-11-24T01:10:31.845Z,73796
2016-11-24T01:10:40.643Z,73797
2016-11-24T01:10:49.400Z,73796
2016-11-24T01:10:58.207Z,73797
2016-11-24T01:11:06.943Z,73791
2016-11-24T01:11:15.688Z,73795
2016-11-24T01:11:24.382Z,73799
2016-11-24T01:11:33.084Z,73795
2016-11-24T01:11:41.830Z,73799
2016-11-24T01:11:50.562Z,73798
2016-11-24T01:11:59.319Z,73791
2016-11-24T01:12:08.068Z,73796
2016-11-24T01:12:16.773Z,73793
2016-11-24T01:12:25.488Z,73795
2016-11-24T01:12:34.257Z,73782
2016-11-24T01:12:43.013Z,73781
2016-11-24T01:12:51.763Z,73784
2016-11-24T01:13:00.498Z,73788
2016-11-24T01:13:09.286Z,73788
2016-11-24T01:13:18.078Z,73788
2016-11-24T01:13:26.827Z,73781
2016-11-24T01:13:35.584Z,73786
2016-11-24T01:13:44.317Z,73789
2016-11-24T01:13:53.082Z,73792
2016-11-24T01:14:01.828Z,73779
2016-11-24T01:14:10.572Z,73789
2016-11-24T01:14:19.331Z,73787
2016-11-24T01:14:28.042Z,73789
2016-11-24T01:14:36.778Z,73788
2016-11-24T01:14:45.528Z,73781
2016-11-24T01:14:54.263Z,73772
2016-11-24T01:15:03.040Z,73780
2016-11-24T01:15:11.776Z,73782
2016-11-24T01:15:20.568Z,73789
2016-11-24T01:15:29.291Z,73790
2016-11-24T01:15:38.033Z,73784
2016-11-24T01:15:46.766Z,73786
2016-11-24T01:15:55.487Z,73788
2016-11-24T01:16:04.312Z,73797
2016-11-24T01:16:13.066Z,73806
2016-11-24T01:16:21.785Z,73804
2016-11-24T01:16:30.500Z,73798
2016-11-24T01:16:39.255Z,73793
2016-11-24T01:16:48.053Z,73803
2016-11-24T01:16:56.832Z,73798
2016-11-24T01:17:05.550Z,73797
2016-11-24T01:17:14.288Z,73789
2016-11-24T01:17:23.009Z,73783
2016-11-24T01:17:31.689Z,73774
2016-11-24T01:17:40.394Z,73784
2016-11-24T01:17:49.115Z,73783
2016-11-24T01:17:57.825Z,73783
2016-11-24T01:18:06.801Z,73778
2016-11-24T01:18:15.458Z,73779
2016-11-24T01:18:24.162Z,73778
2016-11-24T01:18:32.946Z,73791
2016-11-24T01:18:41.693Z,73798
2016-11-24T01:18:50.446Z,73796
2016-11-24T01:18:59.153Z,73790
2016-11-24T01:19:07.941Z,73787
2016-11-24T01:19:16.717Z,73780
2016-11-24T01:19:25.447Z,73776
2016-11-24T01:19:34.203Z,73778
2016-11-24T01:19:42.958Z,73776
2016-11-24T01:19:51.780Z,73771
2016-11-24T01:20:00.814Z,73772
2016-11-24T01:20:09.517Z,73770
2016-11-24T01:20:18.268Z,73762
2016-11-24T01:20:26.987Z,73765
2016-11-24T01:20:35.649Z,73775
2016-11-24T01:20:44.350Z,73779
2016-11-24T01:20:53.061Z,73777
2016-11-24T01:21:01.759Z,73778
2016-11-24T01:21:10.449Z,73783
2016-11-24T01:21:19.174Z,73788
2016-11-24T01:21:27.871Z,73787
2016-11-24T01:21:36.664Z,73791
2016-11-24T01:21:45.420Z,73791
2016-11-24T01:21:54.111Z,73800
2016-11-24T01:22:02.903Z,73796
2016-11-24T01:22:11.723Z,73792
2016-11-24T01:22:20.508Z,73791
2016-11-24T01:22:29.299Z,73781
2016-11-24T01:22:38.082Z,73776
2016-11-24T01:22:46.814Z,73772
2016-11-24T01:22:55.628Z,73773
2016-11-24T01:23:04.350Z,73773
2016-11-24T01:23:13.111Z,73775
2016-11-24T01:23:21.833Z,73774
2016-11-24T01:23:30.495Z,73772
2016-11-24T01:23:39.230Z,73774
2016-11-24T01:23:47.988Z,73783
2016-11-24T01:23:56.659Z,73790
2016-11-24T01:24:05.400Z,73793
2016-11-24T01:24:14.137Z,73785
2016-11-24T01:24:23.204Z,73788
2016-11-24T01:24:31.932Z,73789
2016-11-24T01:24:40.634Z,73785
2016-11-24T01:24:49.417Z,73785
2016-11-24T01:24:58.119Z,73786
2016-11-24T01:25:06.865Z,73789
2016-11-24T01:25:15.604Z,73792
2016-11-24T01:25:24.411Z,73790
2016-11-24T01:25:33.134Z,73790
2016-11-24T01:25:41.889Z,73791
2016-11-24T01:25:50.645Z,73794
2016-11-24T01:25:59.367Z,73793
2016-11-24T01:26:08.050Z,73792
2016-11-24T01:26:16.815Z,73796
2016-11-24T01:26:25.532Z,73791
2016-11-24T01:26:34.318Z,73788
2016-11-24T01:26:43.138Z,73792
2016-11-24T01:26:51.822Z,73789
2016-11-24T01:27:00.627Z,73793
2016-11-24T01:27:09.343Z,73784
2016-11-24T01:27:18.068Z,73783
2016-11-24T01:27:26.830Z,73779
2016-11-24T01:27:35.620Z,73780
2016-11-24T01:27:44.330Z,73779
2016-11-24T01:27:53.052Z,73784
2016-11-24T01:28:01.827Z,73785
2016-11-24T01:28:10.560Z,73788
2016-11-24T01:28:19.237Z,73783
2016-11-24T01:28:27.975Z,73777
2016-11-24T01:28:36.753Z,73781
2016-11-24T01:28:45.507Z,73784
2016-11-24T01:28:54.239Z,73781
2016-11-24T01:29:02.921Z,73781
2016-11-24T01:29:11.645Z,73776
2016-11-24T01:29:20.381Z,73772
2016-11-24T01:29:29.066Z,73778
2016-11-24T01:29:37.821Z,73779
2016-11-24T01:29:46.620Z,73783
2016-11-24T01:29:55.411Z,73793
2016-11-24T01:30:04.106Z,73791
2016-11-24T01:30:12.851Z,73794
2016-11-24T01:30:21.583Z,73793
2016-11-24T01:30:30.402Z,73777
2016-11-24T01:30:39.160Z,73773
2016-11-24T01:30:47.907Z,73759
2016-11-24T01:30:56.661Z,73759
2016-11-24T01:31:05.488Z,73759
2016-11-24T01:31:14.236Z,73753
2016-11-24T01:31:22.965Z,73759
2016-11-24T01:31:31.708Z,73783
2016-11-24T01:31:40.474Z,73789
2016-11-24T01:31:49.173Z,73789
2016-11-24T01:31:57.883Z,73786
2016-11-24T01:32:06.618Z,73779
2016-11-24T01:32:15.342Z,73779
2016-11-24T01:32:24.127Z,73774
2016-11-24T01:32:32.835Z,73778
2016-11-24T01:32:41.592Z,73780
2016-11-24T01:32:50.326Z,73779
2016-11-24T01:32:59.046Z,73781
2016-11-24T01:33:07.795Z,73780
2016-11-24T01:33:16.598Z,73781
2016-11-24T01:33:25.389Z,73777
2016-11-24T01:33:34.134Z,73779
2016-11-24T01:33:42.832Z,73777
2016-11-24T01:33:51.638Z,73776
2016-11-24T01:34:00.396Z,73777
2016-11-24T01:34:09.158Z,73777
2016-11-24T01:34:17.956Z,73767
2016-11-24T01:34:26.999Z,73766
2016-11-24T01:34:35.732Z,73761
2016-11-24T01:34:44.501Z,73765
2016-11-24T01:34:53.257Z,73769
2016-11-24T01:35:01.982Z,73763
2016-11-24T01:35:10.728Z,73765
2016-11-24T01:35:19.428Z,73769
2016-11-24T01:35:28.151Z,73770
2016-11-24T01:35:36.896Z,73776
2016-11-24T01:35:45.632Z,73771
2016-11-24T01:35:54.343Z,73764
2016-11-24T01:36:03.090Z,73767
2016-11-24T01:36:11.813Z,73771
2016-11-24T01:36:20.547Z,73773
2016-11-24T01:36:29.266Z,73772
2016-11-24T01:36:38.018Z,73768
2016-11-24T01:36:46.800Z,73768
2016-11-24T01:36:55.758Z,73766
2016-11-24T01:37:04.514Z,73771
2016-11-24T01:37:13.266Z,73772
2016-11-24T01:37:21.991Z,73779
2016-11-24T01:37:30.716Z,73781
2016-11-24T01:37:39.450Z,73784
2016-11-24T01:37:48.172Z,73785
2016-11-24T01:37:56.849Z,73788
2016-11-24T01:38:05.607Z,73783
2016-11-24T01:38:14.363Z,73786
2016-11-24T01:38:23.091Z,73783
2016-11-24T01:38:31.817Z,73767
2016-11-24T01:38:40.547Z,73758
2016-11-24T01:38:49.332Z,73766
2016-11-24T01:38:58.060Z,73774
2016-11-24T01:39:06.814Z,73778
2016-11-24T01:39:15.567Z,73783
2016-11-24T01:39:24.380Z,73784
2016-11-24T01:39:33.170Z,73779
2016-11-24T01:39:41.883Z,73774
2016-11-24T01:39:50.581Z,73775
2016-11-24T01:39:59.274Z,73778
2016-11-24T01:40:08.010Z,73777
2016-11-24T01:40:16.755Z,73778
2016-11-24T01:40:25.497Z,73775
2016-11-24T01:40:34.267Z,73770
2016-11-24T01:40:42.979Z,73780
2016-11-24T01:40:51.682Z,73774
2016-11-24T01:41:00.440Z,73771
2016-11-24T01:41:09.198Z,73767
2016-11-24T01:41:17.999Z,73766
2016-11-24T01:41:26.690Z,73776
2016-11-24T01:41:35.406Z,73772
2016-11-24T01:41:44.141Z,73767
2016-11-24T01:41:52.869Z,73769
2016-11-24T01:42:01.594Z,73767
2016-11-24T01:42:10.323Z,73765
2016-11-24T01:42:19.051Z,73770
2016-11-24T01:42:27.783Z,73770
2016-11-24T01:42:36.506Z,73772
2016-11-24T01:42:45.290Z,73768
2016-11-24T01:42:54.023Z,73766
2016-11-24T01:43:02.767Z,73765
2016-11-24T01:43:11.492Z,73769
2016-11-24T01:43:20.288Z,73779
2016-11-24T01:43:29.298Z,73780
2016-11-24T01:43:38.023Z,73780
2016-11-24T01:43:46.780Z,73779
2016-11-24T01:43:55.505Z,73780
2016-11-24T01:44:04.264Z,73783
2016-11-24T01:44:12.940Z,73769
2016-11-24T01:44:21.749Z,73774
2016-11-24T01:44:30.481Z,73778
2016-11-24T01:44:39.268Z,73784
2016-11-24T01:44:48.042Z,73783
2016-11-24T01:44:56.814Z,73783
2016-11-24T01:45:05.605Z,73784
2016-11-24T01:45:14.326Z,73784
2016-11-24T01:45:23.026Z,73784
2016-11-24T01:45:31.805Z,73779
2016-11-24T01:45:40.565Z,73773
2016-11-24T01:45:49.289Z,73765
2016-11-24T01:45:58.010Z,73757
2016-11-24T01:46:06.717Z,73749
2016-11-24T01:46:15.500Z,73750
2016-11-24T01:46:24.224Z,73748
2016-11-24T01:46:32.924Z,73757
2016-11-24T01:46:41.647Z,73750
2016-11-24T01:46:50.426Z,73753
2016-11-24T01:46:59.216Z,73759
2016-11-24T01:47:07.944Z,73759
2016-11-24T01:47:16.676Z,73759
2016-11-24T01:47:25.380Z,73772
2016-11-24T01:47:34.103Z,73759
2016-11-24T01:47:42.893Z,73757
2016-11-24T01:47:51.622Z,73747
2016-11-24T01:48:00.334Z,73743
2016-11-24T01:48:09.338Z,73738
2016-11-24T01:48:18.068Z,73739
2016-11-24T01:48:26.812Z,73750
2016-11-24T01:48:35.536Z,73744
2016-11-24T01:48:44.303Z,73742
2016-11-24T01:48:53.096Z,73754
2016-11-24T01:49:01.849Z,73760
2016-11-24T01:49:10.660Z,73759
2016-11-24T01:49:19.417Z,73765
2016-11-24T01:49:28.114Z,73757
2016-11-24T01:49:36.842Z,73752
2016-11-24T01:49:45.631Z,73750
2016-11-24T01:49:54.417Z,73755
2016-11-24T01:50:03.171Z,73747
2016-11-24T01:50:11.900Z,73749
2016-11-24T01:50:20.665Z,73738
2016-11-24T01:50:29.387Z,73739
2016-11-24T01:50:38.114Z,73746
2016-11-24T01:50:46.938Z,73754
2016-11-24T01:50:55.690Z,73755
2016-11-24T01:51:04.708Z,73747
2016-11-24T01:51:13.414Z,73755
2016-11-24T01:51:22.124Z,73751
2016-11-24T01:51:30.881Z,73749
2016-11-24T01:51:39.621Z,73751
2016-11-24T01:51:48.332Z,73743
2016-11-24T01:51:57.097Z,73756
2016-11-24T01:52:05.876Z,73757
2016-11-24T01:52:14.569Z,73764
2016-11-24T01:52:23.293Z,73761
2016-11-24T01:52:32.061Z,73753
2016-11-24T01:52:40.773Z,73764